createdAt,value
2017-08-15T06:27:07.326Z,1010.0
2017-08-15T06:28:08.747Z,1010.0
2017-08-15T06:29:30.272Z,1010.0
2017-08-15T06:30:31.699Z,1010.0
2017-08-15T06:31:53.237Z,1010.0
2017-08-15T06:32:54.813Z,1010.0
2017-08-15T06:34:16.322Z,1010.0
2017-08-15T06:35:17.790Z,1010.0
2017-08-15T06:36:39.306Z,1010.0
2017-08-15T06:37:40.729Z,1010.0
2017-08-15T06:39:02.260Z,1010.0
2017-08-15T06:40:03.687Z,1010.0
2017-08-15T06:41:25.204Z,1009.9
2017-08-15T06:42:26.629Z,1009.9
2017-08-15T06:43:48.166Z,1009.9
2017-08-15T06:44:49.602Z,1009.9
2017-08-15T06:46:11.107Z,1009.9
2017-08-15T06:47:12.531Z,1009.8
2017-08-15T06:48:34.067Z,1009.8
2017-08-15T06:49:35.492Z,1009.8
2017-08-15T06:50:57.011Z,1009.7
2017-08-15T06:51:58.435Z,1009.7
2017-08-15T06:53:19.969Z,1009.6
2017-08-15T06:54:21.394Z,1009.5
2017-08-15T06:55:42.913Z,1009.5
2017-08-15T06:56:44.339Z,1009.6
2017-08-15T06:58:05.874Z,1009.6
2017-08-15T06:59:07.298Z,1009.6
2017-08-15T07:00:28.816Z,1009.6
2017-08-15T07:01:30.238Z,1009.6
2017-08-15T07:02:51.774Z,1009.6
2017-08-15T07:03:53.201Z,1009.7
2017-08-15T07:05:14.718Z,1009.7
2017-08-15T07:06:16.144Z,1009.7
2017-08-15T07:07:37.674Z,1009.8
2017-08-15T07:08:39.099Z,1009.9
2017-08-15T07:10:00.641Z,1009.9
2017-08-15T07:11:02.081Z,1010.0
2017-08-15T07:12:23.621Z,1010.0
2017-08-15T07:13:25.043Z,1010.0
2017-08-15T07:14:46.560Z,1010.1
2017-08-15T07:15:47.980Z,1010.1
2017-08-15T07:17:09.515Z,1010.1
2017-08-15T07:18:10.937Z,1010.2
2017-08-15T07:19:33.445Z,1010.2
2017-08-15T07:20:34.867Z,1010.2
2017-08-15T07:21:56.379Z,1010.1
2017-08-15T07:22:57.800Z,1010.2
2017-08-15T07:24:19.627Z,1010.1
2017-08-15T07:25:21.047Z,1010.2
2017-08-15T07:26:43.065Z,1010.1
2017-08-15T07:27:44.486Z,1010.1
2017-08-15T07:29:06.015Z,1010.1
2017-08-15T07:30:07.440Z,1010.1
2017-08-15T07:31:29.460Z,1010.1
2017-08-15T07:32:30.882Z,1010.1
2017-08-15T07:33:52.420Z,1010.1
2017-08-15T07:34:53.844Z,1010.1
2017-08-15T07:36:15.355Z,1010.1
2017-08-15T07:37:16.777Z,1010.1
2017-08-15T07:38:38.801Z,1010.0
2017-08-15T07:39:40.220Z,1009.9
2017-08-15T07:41:01.729Z,1009.9
2017-08-15T07:42:03.147Z,1009.9
2017-08-15T07:43:24.679Z,1009.8
2017-08-15T07:44:26.101Z,1009.9
2017-08-15T07:45:47.616Z,1009.9
2017-08-15T07:46:49.037Z,1009.9
2017-08-15T07:48:10.568Z,1009.9
2017-08-15T07:49:11.988Z,1009.9
2017-08-15T07:50:33.499Z,1009.9
2017-08-15T07:51:34.918Z,1009.9
2017-08-15T07:52:56.452Z,1009.9
2017-08-15T07:53:57.874Z,1009.9
2017-08-15T07:55:19.384Z,1009.8
2017-08-15T07:56:20.805Z,1009.8
2017-08-15T07:57:42.339Z,1009.8
2017-08-15T07:58:43.758Z,1009.8
2017-08-15T08:00:05.272Z,1009.8
2017-08-15T08:01:06.692Z,1009.8
2017-08-15T08:02:28.224Z,1009.8
2017-08-15T08:03:29.646Z,1009.8
2017-08-15T08:04:51.163Z,1009.7
2017-08-15T08:05:52.583Z,1009.7
2017-08-15T08:07:14.116Z,1009.7
2017-08-15T08:08:15.541Z,1009.7
2017-08-15T08:09:37.046Z,1009.7
2017-08-15T08:10:38.465Z,1009.7
2017-08-15T08:11:59.981Z,1009.6
2017-08-15T08:13:01.399Z,1009.7
2017-08-15T08:14:22.931Z,1009.7
2017-08-15T08:15:24.353Z,1009.6
2017-08-15T08:16:45.869Z,1009.6
2017-08-15T08:17:47.287Z,1009.6
2017-08-15T08:19:08.820Z,1009.5
2017-08-15T08:20:10.241Z,1009.5
2017-08-15T08:21:31.757Z,1009.5
2017-08-15T08:22:33.172Z,1009.5
2017-08-15T08:23:54.704Z,1009.5
2017-08-15T08:24:56.131Z,1009.5
2017-08-15T08:26:17.646Z,1009.6
2017-08-15T08:27:19.066Z,1009.6
2017-08-15T08:28:40.599Z,1009.6
2017-08-15T08:29:42.027Z,1009.7
2017-08-15T08:31:03.540Z,1009.8
2017-08-15T08:32:04.962Z,1009.8
2017-08-15T08:33:26.491Z,1009.9
2017-08-15T08:34:27.914Z,1010.0
2017-08-15T08:35:49.429Z,1010.0
2017-08-15T08:36:50.851Z,1010.0
2017-08-15T08:38:12.480Z,1010.1
2017-08-15T08:39:13.906Z,1010.1
2017-08-15T08:40:35.421Z,1010.2
2017-08-15T08:41:36.842Z,1010.2
2017-08-15T08:42:58.374Z,1010.2
2017-08-15T08:43:59.797Z,1010.3
2017-08-15T08:45:21.311Z,1010.3
2017-08-15T08:46:22.733Z,1010.3
2017-08-15T08:47:44.265Z,1010.4
2017-08-15T08:48:45.687Z,1010.4
2017-08-15T08:50:07.259Z,1010.4
2017-08-15T08:51:08.746Z,1010.4
2017-08-15T08:52:30.278Z,1010.4
2017-08-15T08:53:31.703Z,1010.4
2017-08-15T08:54:53.234Z,1010.3
2017-08-15T08:55:55.111Z,1010.3
2017-08-15T08:57:16.846Z,1010.3
2017-08-15T08:58:18.747Z,1010.3
2017-08-15T08:59:40.073Z,1010.3
2017-08-15T09:00:41.498Z,1010.3
2017-08-15T09:02:03.011Z,1010.3
2017-08-15T09:03:04.433Z,1010.3
2017-08-15T09:04:26.002Z,1010.3
2017-08-15T09:05:27.427Z,1010.3
2017-08-15T09:06:48.942Z,1010.3
2017-08-15T09:07:50.366Z,1010.3
2017-08-15T09:09:11.901Z,1010.3
2017-08-15T09:10:13.327Z,1010.3
2017-08-15T09:11:34.846Z,1010.3
2017-08-15T09:12:36.272Z,1010.3
2017-08-15T09:13:57.809Z,1010.3
2017-08-15T09:14:59.234Z,1010.2
2017-08-15T09:16:20.767Z,1010.2
2017-08-15T09:17:22.398Z,1010.3
2017-08-15T09:18:44.104Z,1010.3
2017-08-15T09:19:45.529Z,1010.4
2017-08-15T09:21:07.042Z,1010.3
2017-08-15T09:22:08.468Z,1010.4
2017-08-15T09:23:30.006Z,1010.4
2017-08-15T09:24:31.429Z,1010.5
2017-08-15T09:25:52.947Z,1010.5
2017-08-15T09:26:54.368Z,1010.6
2017-08-15T09:28:15.913Z,1010.6
2017-08-15T09:29:17.336Z,1010.6
2017-08-15T09:30:38.872Z,1010.6
2017-08-15T09:31:40.295Z,1010.6
2017-08-15T09:33:01.829Z,1010.7
2017-08-15T09:34:03.255Z,1010.6
2017-08-15T09:35:25.335Z,1010.6
2017-08-15T09:36:26.806Z,1010.6
2017-08-15T09:37:48.830Z,1010.6
2017-08-15T09:38:50.248Z,1010.7
2017-08-15T09:40:11.982Z,1010.7
2017-08-15T09:41:13.364Z,1010.6
2017-08-15T09:42:34.879Z,1010.6
2017-08-15T09:43:36.304Z,1010.6
2017-08-15T09:44:57.849Z,1010.6
2017-08-15T09:45:59.391Z,1010.7
2017-08-15T09:47:21.187Z,1010.6
2017-08-15T09:48:22.613Z,1010.7
2017-08-15T09:49:44.176Z,1010.7
2017-08-15T09:50:45.602Z,1010.7
2017-08-15T09:52:07.119Z,1010.7
2017-08-15T09:53:08.650Z,1010.7
2017-08-15T09:54:30.186Z,1010.6
2017-08-15T09:55:31.613Z,1010.6
2017-08-15T09:56:53.135Z,1010.6
2017-08-15T09:57:54.557Z,1010.6
2017-08-15T09:59:16.093Z,1010.6
2017-08-15T10:00:17.520Z,1010.7
2017-08-15T10:01:39.038Z,1010.6
2017-08-15T10:02:40.463Z,1010.6
2017-08-15T10:04:02.001Z,1010.6
2017-08-15T10:05:03.429Z,1010.5
2017-08-15T10:06:24.947Z,1010.4
2017-08-15T10:07:26.374Z,1010.5
2017-08-15T10:08:47.913Z,1010.5
2017-08-15T10:09:49.338Z,1010.4
2017-08-15T10:11:10.857Z,1010.4
2017-08-15T10:12:12.777Z,1010.4
2017-08-15T10:13:34.493Z,1010.3
2017-08-15T10:14:36.094Z,1010.3
2017-08-15T10:15:57.608Z,1010.3
2017-08-15T10:16:59.098Z,1010.3
2017-08-15T10:18:20.637Z,1010.3
2017-08-15T10:19:22.063Z,1010.3
2017-08-15T10:20:43.587Z,1010.3
2017-08-15T10:21:45.006Z,1010.3
2017-08-15T10:23:06.544Z,1010.3
2017-08-15T10:24:07.973Z,1010.4
2017-08-15T10:25:29.492Z,1010.4
2017-08-15T10:26:30.919Z,1010.4
2017-08-15T10:27:52.430Z,1010.3
2017-08-15T10:28:53.853Z,1010.3
2017-08-15T10:30:15.389Z,1010.3
2017-08-15T10:31:16.817Z,1010.4
2017-08-15T10:32:38.344Z,1010.3
2017-08-15T10:33:39.758Z,1010.3
2017-08-15T10:35:01.295Z,1010.3
2017-08-15T10:36:02.720Z,1010.3
2017-08-15T10:37:24.240Z,1010.3
2017-08-15T10:38:25.667Z,1010.3
2017-08-15T10:39:47.205Z,1010.3
2017-08-15T10:40:48.630Z,1010.3
2017-08-15T10:42:10.149Z,1010.3
2017-08-15T10:43:11.576Z,1010.3
2017-08-15T10:44:33.109Z,1010.3
2017-08-15T10:45:34.812Z,1010.3
2017-08-15T10:46:56.331Z,1010.3
2017-08-15T10:47:57.796Z,1010.3
2017-08-15T10:49:19.338Z,1010.2
2017-08-15T10:50:20.764Z,1010.2
2017-08-15T10:51:42.279Z,1010.2
2017-08-15T10:52:43.708Z,1010.3
2017-08-15T10:54:05.245Z,1010.2
2017-08-15T10:55:06.672Z,1010.2
2017-08-15T10:56:28.197Z,1010.2
2017-08-15T10:57:29.631Z,1010.2
2017-08-15T10:58:51.170Z,1010.2
2017-08-15T10:59:52.709Z,1010.2
2017-08-15T11:01:14.275Z,1010.2
2017-08-15T11:02:15.703Z,1010.2
2017-08-15T11:03:37.248Z,1010.2
2017-08-15T11:05:18.224Z,1010.2
2017-08-15T11:06:19.703Z,1010.2
2017-08-15T11:07:42.215Z,1010.2
2017-08-15T11:08:43.644Z,1010.2
2017-08-15T11:10:05.179Z,1010.1
2017-08-15T11:11:06.607Z,1010.1
2017-08-15T11:12:28.126Z,1010.0
2017-08-15T11:13:29.569Z,1010.0
2017-08-15T11:14:51.112Z,1009.9
2017-08-15T11:15:52.624Z,1009.9
2017-08-15T11:17:14.148Z,1009.9
2017-08-15T11:18:15.840Z,1009.8
2017-08-15T11:19:37.430Z,1009.9
2017-08-15T11:20:38.851Z,1009.8
2017-08-15T11:22:00.561Z,1009.8
2017-08-15T11:23:02.000Z,1009.8
2017-08-15T11:24:23.745Z,1009.8
2017-08-15T11:25:25.164Z,1009.7
2017-08-15T11:26:47.290Z,1009.7
2017-08-15T11:27:48.702Z,1009.6
2017-08-15T11:29:10.244Z,1009.6
2017-08-15T11:30:11.667Z,1009.5
2017-08-15T11:31:34.390Z,1009.5
2017-08-15T11:32:35.887Z,1009.4
2017-08-15T11:33:57.437Z,1009.4
2017-08-15T11:34:58.864Z,1009.3
2017-08-15T11:36:20.384Z,1009.3
2017-08-15T11:37:21.830Z,1009.2
2017-08-15T11:38:43.375Z,1009.2
2017-08-15T11:39:44.803Z,1009.2
2017-08-15T11:41:06.524Z,1009.2
2017-08-15T11:42:07.947Z,1009.2
2017-08-15T11:43:29.489Z,1009.2
2017-08-15T11:44:30.914Z,1009.3
2017-08-15T11:45:52.436Z,1009.3
2017-08-15T11:47:33.330Z,1009.3
2017-08-15T11:49:14.248Z,1009.3
2017-08-15T11:50:15.677Z,1009.3
2017-08-15T11:51:37.211Z,1009.2
2017-08-15T11:52:38.636Z,1009.2
2017-08-15T11:54:00.179Z,1009.1
2017-08-15T11:55:01.607Z,1009.1
2017-08-15T11:56:23.306Z,1009.0
2017-08-15T11:57:24.733Z,1009.0
2017-08-15T11:58:46.275Z,1009.0
2017-08-15T11:59:47.701Z,1009.0
2017-08-15T12:01:09.220Z,1009.0
2017-08-15T12:02:10.651Z,1009.0
2017-08-15T12:03:32.311Z,1009.0
2017-08-15T12:04:33.710Z,1009.0
2017-08-15T12:05:55.228Z,1008.9
2017-08-15T12:06:56.655Z,1008.9
2017-08-15T12:08:18.181Z,1008.8
2017-08-15T12:09:20.793Z,1008.8
2017-08-15T12:10:42.226Z,1008.8
2017-08-15T12:11:43.658Z,1008.7
2017-08-15T12:13:05.186Z,1008.7
2017-08-15T12:14:06.635Z,1008.8
2017-08-15T12:15:28.171Z,1008.7
2017-08-15T12:16:29.596Z,1008.7
2017-08-15T12:17:51.113Z,1008.7
2017-08-15T12:18:52.539Z,1008.7
2017-08-15T12:20:14.081Z,1008.7
2017-08-15T12:21:15.507Z,1008.8
2017-08-15T12:22:37.026Z,1008.9
2017-08-15T12:23:38.452Z,1008.9
2017-08-15T12:24:59.999Z,1008.9
2017-08-15T12:26:01.420Z,1008.9
2017-08-15T12:27:23.938Z,1008.9
2017-08-15T12:28:25.365Z,1008.9
2017-08-15T12:29:46.905Z,1008.9
2017-08-15T12:30:48.331Z,1008.9
2017-08-15T12:32:09.850Z,1008.8
2017-08-15T12:33:11.276Z,1008.8
2017-08-15T12:34:32.815Z,1008.7
2017-08-15T12:35:34.240Z,1008.7
2017-08-15T12:36:55.762Z,1008.7
2017-08-15T12:37:57.189Z,1008.8
2017-08-15T12:39:18.727Z,1008.8
2017-08-15T12:40:20.154Z,1008.8
2017-08-15T12:41:41.828Z,1008.9
2017-08-15T12:42:43.253Z,1008.9
2017-08-15T12:44:04.792Z,1008.9
2017-08-15T12:45:06.219Z,1008.9
2017-08-15T12:46:27.740Z,1009.0
2017-08-15T12:47:29.166Z,1008.9
2017-08-15T12:48:50.705Z,1008.9
2017-08-15T12:49:52.132Z,1009.0
2017-08-15T12:51:13.652Z,1008.9
2017-08-15T12:52:15.077Z,1009.0
2017-08-15T12:53:36.595Z,1009.0
2017-08-15T12:54:38.022Z,1008.9
2017-08-15T12:55:59.564Z,1008.9
2017-08-15T12:57:00.990Z,1008.9
2017-08-15T12:58:22.507Z,1008.8
2017-08-15T12:59:23.932Z,1008.7
2017-08-15T13:00:45.467Z,1008.6
2017-08-15T13:01:46.896Z,1008.7
2017-08-15T13:03:08.411Z,1008.7
2017-08-15T13:04:09.836Z,1008.7
2017-08-15T13:05:31.373Z,1008.8
2017-08-15T13:06:32.800Z,1008.8
2017-08-15T13:07:54.625Z,1008.8
2017-08-15T13:08:56.046Z,1008.8
2017-08-15T13:10:17.624Z,1008.7
2017-08-15T13:11:58.518Z,1008.7
2017-08-15T13:13:39.406Z,1008.7
2017-08-15T13:15:20.320Z,1008.6
2017-08-15T13:16:22.393Z,1008.6
2017-08-15T13:17:43.873Z,1008.5
2017-08-15T13:18:45.298Z,1008.5
2017-08-15T13:20:06.834Z,1008.5
2017-08-15T13:21:08.260Z,1008.5
2017-08-15T13:22:29.784Z,1008.5
2017-08-15T13:23:31.209Z,1008.5
2017-08-15T13:24:52.885Z,1008.5
2017-08-15T13:25:54.311Z,1008.5
2017-08-15T13:27:15.827Z,1008.5
2017-08-15T13:28:17.250Z,1008.5
2017-08-15T13:29:38.784Z,1008.5
2017-08-15T13:30:40.216Z,1008.5
2017-08-15T13:32:01.738Z,1008.5
2017-08-15T13:33:03.161Z,1008.5
2017-08-15T13:34:24.696Z,1008.5
2017-08-15T13:35:26.123Z,1008.5
2017-08-15T13:36:47.641Z,1008.6
2017-08-15T13:37:49.066Z,1008.6
2017-08-15T13:39:10.602Z,1008.5
2017-08-15T13:40:12.026Z,1008.5
2017-08-15T13:41:33.539Z,1008.5
2017-08-15T13:42:34.965Z,1008.4
2017-08-15T13:43:57.363Z,1008.4
2017-08-15T13:45:38.275Z,1008.4
2017-08-15T13:46:39.698Z,1008.4
2017-08-15T13:48:01.220Z,1008.4
2017-08-15T13:49:02.837Z,1008.3
2017-08-15T13:50:24.374Z,1008.4
2017-08-15T13:51:25.800Z,1008.4
2017-08-15T13:52:47.314Z,1008.5
2017-08-15T13:53:48.739Z,1008.4
2017-08-15T13:55:10.277Z,1008.5
2017-08-15T13:56:11.703Z,1008.5
2017-08-15T13:57:33.220Z,1008.5
2017-08-15T13:58:34.645Z,1008.5
2017-08-15T13:59:56.182Z,1008.4
2017-08-15T14:00:57.609Z,1008.5
2017-08-15T14:02:19.127Z,1008.5
2017-08-15T14:03:20.551Z,1008.5
2017-08-15T14:04:42.087Z,1008.5
2017-08-15T14:05:43.514Z,1008.5
2017-08-15T14:07:05.050Z,1008.6
2017-08-15T14:08:06.476Z,1008.6
2017-08-15T14:09:27.997Z,1008.6
2017-08-15T14:10:29.419Z,1008.7
2017-08-15T14:11:50.954Z,1008.7
2017-08-15T14:12:52.378Z,1008.8
2017-08-15T14:14:14.890Z,1008.8
2017-08-15T14:15:16.316Z,1008.8
2017-08-15T14:16:37.848Z,1008.8
2017-08-15T14:17:39.275Z,1008.9
2017-08-15T14:19:00.794Z,1008.9
2017-08-15T14:20:02.219Z,1008.9
2017-08-15T14:21:24.248Z,1008.9
2017-08-15T14:22:25.674Z,1008.9
2017-08-15T14:23:47.189Z,1009.0
2017-08-15T14:24:48.611Z,1008.9
2017-08-15T14:26:10.149Z,1008.9
2017-08-15T14:27:11.577Z,1008.8
2017-08-15T14:28:33.101Z,1008.9
2017-08-15T14:29:34.525Z,1008.9
2017-08-15T14:30:56.061Z,1008.9
2017-08-15T15:12:33.634Z,1009.3
2017-08-15T15:13:35.090Z,1009.2
2017-08-15T15:14:56.605Z,1009.2
2017-08-15T15:15:58.026Z,1009.1
2017-08-15T15:17:19.563Z,1009.1
2017-08-15T15:18:20.985Z,1009.2
2017-08-15T15:19:42.503Z,1009.2
2017-08-15T15:20:43.922Z,1009.3
2017-08-15T15:22:05.466Z,1009.3
2017-08-15T15:23:06.889Z,1009.3
2017-08-15T15:24:28.404Z,1009.3
2017-08-15T15:25:29.826Z,1009.3
2017-08-15T15:26:51.385Z,1009.3
2017-08-15T15:27:52.840Z,1009.3
2017-08-15T15:29:15.545Z,1009.3
2017-08-15T15:30:16.968Z,1009.3
2017-08-15T15:31:38.500Z,1009.3
2017-08-15T15:32:39.924Z,1009.3
2017-08-15T15:34:01.441Z,1009.3
2017-08-15T15:35:02.889Z,1009.3
2017-08-15T15:36:24.407Z,1009.3
2017-08-15T15:37:25.868Z,1009.4
2017-08-15T15:38:47.433Z,1009.4
2017-08-15T15:39:48.993Z,1009.4
2017-08-15T15:41:10.510Z,1009.4
2017-08-15T15:42:11.933Z,1009.4
2017-08-15T15:43:33.461Z,1009.4
2017-08-15T15:44:34.891Z,1009.4
2017-08-15T15:45:56.409Z,1009.4
2017-08-15T15:46:57.831Z,1009.4
2017-08-15T15:48:19.370Z,1009.4
2017-08-15T15:49:20.794Z,1009.4
2017-08-15T15:50:42.310Z,1009.4
2017-08-15T15:51:43.731Z,1009.4
2017-08-15T15:53:05.262Z,1009.4
2017-08-15T15:54:06.752Z,1009.3
2017-08-15T15:55:28.261Z,1009.3
2017-08-15T15:57:10.397Z,1009.3
2017-08-15T15:59:02.730Z,1009.3
2017-08-15T16:00:04.162Z,1009.2
2017-08-15T16:01:25.722Z,1009.3
2017-08-15T16:02:27.381Z,1009.3
2017-08-15T16:03:48.903Z,1009.3
2017-08-15T16:04:50.321Z,1009.2
2017-08-15T16:06:11.840Z,1009.2
2017-08-15T16:07:13.271Z,1009.2
2017-08-15T16:08:34.802Z,1009.2
2017-08-15T16:09:36.227Z,1009.2
2017-08-15T16:10:57.744Z,1009.1
2017-08-15T16:11:59.179Z,1009.1
2017-08-15T16:13:20.705Z,1009.0
2017-08-15T16:14:22.131Z,1009.0
2017-08-15T16:15:43.648Z,1009.0
2017-08-15T16:16:45.069Z,1008.9
2017-08-15T16:18:06.602Z,1008.9
2017-08-15T16:19:08.026Z,1008.9
2017-08-15T16:20:29.544Z,1008.9
2017-08-15T16:21:30.964Z,1008.9
2017-08-15T16:22:52.715Z,1008.9
2017-08-15T16:23:54.142Z,1008.9
2017-08-15T16:25:15.914Z,1008.9
2017-08-15T16:26:17.338Z,1008.9
2017-08-15T16:27:38.875Z,1008.9
2017-08-15T16:28:40.299Z,1008.8
2017-08-15T16:30:01.815Z,1008.8
2017-08-15T16:31:03.239Z,1008.8
2017-08-15T16:32:24.771Z,1008.7
2017-08-15T16:33:26.205Z,1008.8
2017-08-15T16:34:47.722Z,1008.8
2017-08-15T16:35:49.169Z,1008.8
2017-08-15T16:37:10.719Z,1008.8
2017-08-15T16:38:12.141Z,1008.8
2017-08-15T16:39:33.896Z,1008.8
2017-08-15T16:40:35.379Z,1008.7
2017-08-15T16:41:56.907Z,1008.7
2017-08-15T16:42:58.537Z,1008.7
2017-08-15T16:44:20.092Z,1008.7
2017-08-15T16:45:21.514Z,1008.7
2017-08-15T16:46:43.048Z,1008.7
2017-08-15T16:47:44.471Z,1008.6
2017-08-15T16:49:05.984Z,1008.6
2017-08-15T16:50:07.417Z,1008.7
2017-08-15T16:51:28.928Z,1008.7
2017-08-15T16:52:30.499Z,1008.7
2017-08-15T16:53:52.282Z,1008.8
2017-08-15T16:54:53.789Z,1008.7
2017-08-15T16:56:15.443Z,1008.8
2017-08-15T16:57:17.527Z,1008.8
2017-08-15T16:58:40.760Z,1008.9
2017-08-15T16:59:42.504Z,1008.9
2017-08-15T17:01:04.010Z,1008.9
2017-08-15T17:02:05.436Z,1008.9
2017-08-15T17:03:27.060Z,1008.9
2017-08-15T17:04:28.477Z,1008.9
2017-08-15T17:05:50.297Z,1009.0
2017-08-15T17:06:51.743Z,1008.9
2017-08-15T17:08:13.816Z,1008.9
2017-08-15T17:09:15.284Z,1008.9
2017-08-15T17:10:37.981Z,1008.9
